sensor_id;sensor_type;location;lat;lon;timestamp;P1;durP1;ratioP1;P2;durP2;ratioP2
21140;SDS011;10728;53.284;10.314;2022-12-18T00:01:38;13.40;;;6.70;;
21140;SDS011;10728;53.284;10.314;2022-12-18T00:04:04;12.00;;;6.47;;
21140;SDS011;10728;53.284;10.314;2022-12-18T00:06:30;13.20;;;6.90;;
21140;SDS011;10728;53.284;10.314;2022-12-18T00:08:58;13.50;;;7.00;;
21140;SDS011;10728;53.284;10.314;2022-12-18T00:11:26;10.50;;;6.33;;
21140;SDS011;10728;53.284;10.314;2022-12-18T00:13:54;10.77;;;6.30;;
21140;SDS011;10728;53.284;10.314;2022-12-18T00:16:21;11.40;;;6.10;;
21140;SDS011;10728;53.284;10.314;2022-12-18T00:18:48;12.20;;;5.93;;
21140;SDS011;10728;53.284;10.314;2022-12-18T00:21:15;12.33;;;6.33;;
21140;SDS011;10728;53.284;10.314;2022-12-18T00:23:41;13.50;;;5.80;;
21140;SDS011;10728;53.284;10.314;2022-12-18T00:26:10;10.87;;;6.33;;
21140;SDS011;10728;53.284;10.314;2022-12-18T00:28:40;11.87;;;6.20;;
21140;SDS011;10728;53.284;10.314;2022-12-18T00:31:07;15.67;;;7.20;;
21140;SDS011;10728;53.284;10.314;2022-12-18T00:33:34;10.10;;;5.20;;
21140;SDS011;10728;53.284;10.314;2022-12-18T00:36:01;11.30;;;5.50;;
21140;SDS011;10728;53.284;10.314;2022-12-18T00:38:27;11.17;;;6.07;;
21140;SDS011;10728;53.284;10.314;2022-12-18T00:40:52;10.67;;;5.97;;
21140;SDS011;10728;53.284;10.314;2022-12-18T00:43:18;9.10;;;5.40;;
21140;SDS011;10728;53.284;10.314;2022-12-18T00:45:43;12.03;;;6.27;;
21140;SDS011;10728;53.284;10.314;2022-12-18T00:48:09;8.47;;;5.40;;
21140;SDS011;10728;53.284;10.314;2022-12-18T00:50:34;12.67;;;6.67;;
21140;SDS011;10728;53.284;10.314;2022-12-18T00:53:00;14.17;;;6.03;;
21140;SDS011;10728;53.284;10.314;2022-12-18T00:55:26;10.97;;;5.90;;
21140;SDS011;10728;53.284;10.314;2022-12-18T00:57:51;12.73;;;5.90;;
21140;SDS011;10728;53.284;10.314;2022-12-18T01:00:17;9.13;;;5.10;;
21140;SDS011;10728;53.284;10.314;2022-12-18T01:02:43;9.93;;;5.67;;
21140;SDS011;10728;53.284;10.314;2022-12-18T01:05:09;12.10;;;6.07;;
21140;SDS011;10728;53.284;10.314;2022-12-18T01:07:36;12.27;;;6.17;;
21140;SDS011;10728;53.284;10.314;2022-12-18T01:10:02;8.73;;;5.50;;
21140;SDS011;10728;53.284;10.314;2022-12-18T01:12:28;9.03;;;5.03;;
21140;SDS011;10728;53.284;10.314;2022-12-18T01:14:53;10.40;;;5.50;;
21140;SDS011;10728;53.284;10.314;2022-12-18T01:17:19;10.10;;;5.60;;
21140;SDS011;10728;53.284;10.314;2022-12-18T01:19:45;11.97;;;6.00;;
21140;SDS011;10728;53.284;10.314;2022-12-18T01:22:10;11.57;;;5.90;;
21140;SDS011;10728;53.284;10.314;2022-12-18T01:24:36;14.43;;;6.03;;
21140;SDS011;10728;53.284;10.314;2022-12-18T01:27:02;11.13;;;6.23;;
21140;SDS011;10728;53.284;10.314;2022-12-18T01:29:27;11.03;;;6.10;;
21140;SDS011;10728;53.284;10.314;2022-12-18T01:31:54;11.13;;;5.50;;
21140;SDS011;10728;53.284;10.314;2022-12-18T01:34:21;10.43;;;5.60;;
21140;SDS011;10728;53.284;10.314;2022-12-18T01:36:47;9.93;;;5.80;;
21140;SDS011;10728;53.284;10.314;2022-12-18T01:39:13;14.60;;;5.70;;
21140;SDS011;10728;53.284;10.314;2022-12-18T01:41:40;13.63;;;5.63;;
21140;SDS011;10728;53.284;10.314;2022-12-18T01:47:34;14.63;;;6.60;;
21140;SDS011;10728;53.284;10.314;2022-12-18T01:50:12;13.13;;;6.40;;
21140;SDS011;10728;53.284;10.314;2022-12-18T01:52:40;11.47;;;6.03;;
21140;SDS011;10728;53.284;10.314;2022-12-18T01:55:08;11.47;;;6.30;;
21140;SDS011;10728;53.284;10.314;2022-12-18T01:57:34;15.80;;;6.60;;
21140;SDS011;10728;53.284;10.314;2022-12-18T02:00:04;11.43;;;6.13;;
21140;SDS011;10728;53.284;10.314;2022-12-18T02:02:41;11.23;;;5.90;;
21140;SDS011;10728;53.284;10.314;2022-12-18T02:05:07;11.17;;;5.73;;
21140;SDS011;10728;53.284;10.314;2022-12-18T02:10:13;10.23;;;5.47;;
21140;SDS011;10728;53.284;10.314;2022-12-18T02:12:53;9.27;;;5.37;;
21140;SDS011;10728;53.284;10.314;2022-12-18T02:15:31;11.27;;;6.67;;
21140;SDS011;10728;53.284;10.314;2022-12-18T02:18:01;11.00;;;6.57;;
21140;SDS011;10728;53.284;10.314;2022-12-18T02:20:42;13.37;;;7.03;;
21140;SDS011;10728;53.284;10.314;2022-12-18T02:28:24;9.70;;;6.13;;
21140;SDS011;10728;53.284;10.314;2022-12-18T02:30:53;9.93;;;5.80;;
21140;SDS011;10728;53.284;10.314;2022-12-18T02:33:21;12.63;;;5.87;;
21140;SDS011;10728;53.284;10.314;2022-12-18T02:35:51;13.03;;;6.17;;
21140;SDS011;10728;53.284;10.314;2022-12-18T02:38:19;12.50;;;6.67;;
21140;SDS011;10728;53.284;10.314;2022-12-18T02:40:47;11.40;;;5.70;;
21140;SDS011;10728;53.284;10.314;2022-12-18T02:43:16;14.80;;;6.40;;
21140;SDS011;10728;53.284;10.314;2022-12-18T02:45:46;13.33;;;7.17;;
21140;SDS011;10728;53.284;10.314;2022-12-18T02:48:17;11.90;;;6.77;;
21140;SDS011;10728;53.284;10.314;2022-12-18T02:53:43;13.67;;;6.90;;
21140;SDS011;10728;53.284;10.314;2022-12-18T02:56:16;15.90;;;7.10;;
21140;SDS011;10728;53.284;10.314;2022-12-18T02:58:52;14.67;;;6.27;;
21140;SDS011;10728;53.284;10.314;2022-12-18T03:01:43;15.20;;;6.83;;
21140;SDS011;10728;53.284;10.314;2022-12-18T03:04:30;11.20;;;5.73;;
21140;SDS011;10728;53.284;10.314;2022-12-18T03:07:12;13.10;;;6.60;;
21140;SDS011;10728;53.284;10.314;2022-12-18T03:09:43;13.60;;;6.07;;
21140;SDS011;10728;53.284;10.314;2022-12-18T03:12:24;10.33;;;6.00;;
21140;SDS011;10728;53.284;10.314;2022-12-18T03:15:30;11.77;;;6.27;;
21140;SDS011;10728;53.284;10.314;2022-12-18T03:17:57;12.93;;;6.10;;
21140;SDS011;10728;53.284;10.314;2022-12-18T03:20:29;13.43;;;6.40;;
21140;SDS011;10728;53.284;10.314;2022-12-18T03:22:59;12.67;;;6.50;;
21140;SDS011;10728;53.284;10.314;2022-12-18T03:25:29;11.13;;;6.17;;
21140;SDS011;10728;53.284;10.314;2022-12-18T03:27:57;10.47;;;5.93;;
21140;SDS011;10728;53.284;10.314;2022-12-18T03:30:24;12.33;;;6.80;;
21140;SDS011;10728;53.284;10.314;2022-12-18T03:32:56;12.13;;;6.50;;
21140;SDS011;10728;53.284;10.314;2022-12-18T03:35:33;15.60;;;6.33;;
21140;SDS011;10728;53.284;10.314;2022-12-18T03:38:02;12.33;;;6.97;;
21140;SDS011;10728;53.284;10.314;2022-12-18T03:48:46;15.00;;;6.90;;
21140;SDS011;10728;53.284;10.314;2022-12-18T03:51:59;13.60;;;6.43;;
21140;SDS011;10728;53.284;10.314;2022-12-18T03:54:28;11.23;;;6.17;;
21140;SDS011;10728;53.284;10.314;2022-12-18T03:57:05;12.60;;;6.70;;
21140;SDS011;10728;53.284;10.314;2022-12-18T04:03:05;9.20;;;5.67;;
21140;SDS011;10728;53.284;10.314;2022-12-18T04:12:59;13.20;;;6.87;;
21140;SDS011;10728;53.284;10.314;2022-12-18T04:16:44;13.80;;;6.10;;
21140;SDS011;10728;53.284;10.314;2022-12-18T05:32:35;15.53;;;7.80;;
21140;SDS011;10728;53.284;10.314;2022-12-18T05:57:44;19.13;;;9.40;;
21140;SDS011;10728;53.284;10.314;2022-12-18T06:04:38;16.70;;;8.23;;
21140;SDS011;10728;53.284;10.314;2022-12-18T07:00:21;21.00;;;8.23;;
21140;SDS011;10728;53.284;10.314;2022-12-18T07:04:03;14.53;;;7.37;;
21140;SDS011;10728;53.284;10.314;2022-12-18T10:00:24;30.87;;;12.07;;
21140;SDS011;10728;53.284;10.314;2022-12-18T10:02:56;27.00;;;11.80;;
21140;SDS011;10728;53.284;10.314;2022-12-18T10:05:29;28.00;;;12.27;;
21140;SDS011;10728;53.284;10.314;2022-12-18T10:08:13;25.47;;;12.63;;
21140;SDS011;10728;53.284;10.314;2022-12-18T10:10:43;26.80;;;12.60;;
21140;SDS011;10728;53.284;10.314;2022-12-18T10:13:17;24.23;;;11.53;;
21140;SDS011;10728;53.284;10.314;2022-12-18T10:15:56;33.03;;;13.57;;
21140;SDS011;10728;53.284;10.314;2022-12-18T10:21:10;27.77;;;13.40;;
21140;SDS011;10728;53.284;10.314;2022-12-18T10:27:18;26.80;;;12.37;;
21140;SDS011;10728;53.284;10.314;2022-12-18T10:29:47;28.23;;;12.43;;
21140;SDS011;10728;53.284;10.314;2022-12-18T10:32:17;26.90;;;12.23;;
21140;SDS011;10728;53.284;10.314;2022-12-18T10:34:45;26.03;;;12.80;;
21140;SDS011;10728;53.284;10.314;2022-12-18T10:37:19;30.30;;;12.90;;
21140;SDS011;10728;53.284;10.314;2022-12-18T10:40:04;28.67;;;13.07;;
21140;SDS011;10728;53.284;10.314;2022-12-18T10:42:32;26.57;;;12.63;;
21140;SDS011;10728;53.284;10.314;2022-12-18T10:45:03;28.43;;;13.83;;
21140;SDS011;10728;53.284;10.314;2022-12-18T10:47:33;25.87;;;13.00;;
21140;SDS011;10728;53.284;10.314;2022-12-18T10:50:28;22.77;;;11.57;;
21140;SDS011;10728;53.284;10.314;2022-12-18T10:53:01;28.63;;;13.20;;
21140;SDS011;10728;53.284;10.314;2022-12-18T10:56:05;25.30;;;12.50;;
21140;SDS011;10728;53.284;10.314;2022-12-18T11:02:07;31.27;;;13.40;;
21140;SDS011;10728;53.284;10.314;2022-12-18T11:08:29;25.93;;;12.57;;
21140;SDS011;10728;53.284;10.314;2022-12-18T11:11:00;26.97;;;12.80;;
21140;SDS011;10728;53.284;10.314;2022-12-18T11:18:03;25.93;;;12.93;;
21140;SDS011;10728;53.284;10.314;2022-12-18T11:21:31;28.73;;;12.77;;
21140;SDS011;10728;53.284;10.314;2022-12-18T11:28:49;27.63;;;13.87;;
21140;SDS011;10728;53.284;10.314;2022-12-18T11:39:35;29.83;;;13.10;;
21140;SDS011;10728;53.284;10.314;2022-12-18T11:50:10;35.03;;;14.77;;
21140;SDS011;10728;53.284;10.314;2022-12-18T11:57:48;31.20;;;14.77;;
21140;SDS011;10728;53.284;10.314;2022-12-18T12:08:14;31.60;;;14.03;;
21140;SDS011;10728;53.284;10.314;2022-12-18T12:39:11;35.07;;;14.73;;
21140;SDS011;10728;53.284;10.314;2022-12-18T12:41:53;32.40;;;13.53;;
21140;SDS011;10728;53.284;10.314;2022-12-18T12:44:42;31.77;;;13.50;;
21140;SDS011;10728;53.284;10.314;2022-12-18T12:47:44;32.00;;;13.80;;
21140;SDS011;10728;53.284;10.314;2022-12-18T12:50:13;33.77;;;14.13;;
21140;SDS011;10728;53.284;10.314;2022-12-18T12:52:42;34.13;;;14.60;;
21140;SDS011;10728;53.284;10.314;2022-12-18T12:55:22;39.73;;;15.77;;
21140;SDS011;10728;53.284;10.314;2022-12-18T13:00:53;31.77;;;13.30;;
21140;SDS011;10728;53.284;10.314;2022-12-18T13:03:31;33.47;;;15.00;;
21140;SDS011;10728;53.284;10.314;2022-12-18T13:06:01;30.50;;;14.03;;
21140;SDS011;10728;53.284;10.314;2022-12-18T13:08:33;36.10;;;15.60;;
21140;SDS011;10728;53.284;10.314;2022-12-18T13:11:30;34.77;;;14.63;;
21140;SDS011;10728;53.284;10.314;2022-12-18T13:14:45;35.93;;;14.40;;
21140;SDS011;10728;53.284;10.314;2022-12-18T13:17:44;32.87;;;15.50;;
21140;SDS011;10728;53.284;10.314;2022-12-18T13:22:36;33.50;;;14.47;;
21140;SDS011;10728;53.284;10.314;2022-12-18T13:25:26;35.73;;;15.23;;
21140;SDS011;10728;53.284;10.314;2022-12-18T13:35:39;35.33;;;15.47;;
21140;SDS011;10728;53.284;10.314;2022-12-18T13:40:58;36.83;;;15.67;;
21140;SDS011;10728;53.284;10.314;2022-12-18T13:51:50;37.20;;;16.40;;
21140;SDS011;10728;53.284;10.314;2022-12-18T13:54:18;33.80;;;15.37;;
21140;SDS011;10728;53.284;10.314;2022-12-18T13:56:54;36.73;;;15.83;;
21140;SDS011;10728;53.284;10.314;2022-12-18T13:59:21;31.50;;;14.57;;
21140;SDS011;10728;53.284;10.314;2022-12-18T14:04:21;37.73;;;15.40;;
21140;SDS011;10728;53.284;10.314;2022-12-18T14:06:47;32.37;;;15.23;;
21140;SDS011;10728;53.284;10.314;2022-12-18T14:09:16;37.63;;;16.97;;
21140;SDS011;10728;53.284;10.314;2022-12-18T14:13:08;35.40;;;15.23;;
21140;SDS011;10728;53.284;10.314;2022-12-18T14:15:38;35.47;;;14.97;;
21140;SDS011;10728;53.284;10.314;2022-12-18T14:21:40;42.87;;;18.37;;
21140;SDS011;10728;53.284;10.314;2022-12-18T14:24:29;40.03;;;15.63;;
21140;SDS011;10728;53.284;10.314;2022-12-18T14:26:56;34.20;;;15.50;;
21140;SDS011;10728;53.284;10.314;2022-12-18T14:33:29;37.73;;;15.27;;
21140;SDS011;10728;53.284;10.314;2022-12-18T14:36:02;35.63;;;15.77;;
21140;SDS011;10728;53.284;10.314;2022-12-18T14:38:39;37.27;;;16.63;;
21140;SDS011;10728;53.284;10.314;2022-12-18T14:44:05;37.33;;;15.40;;
21140;SDS011;10728;53.284;10.314;2022-12-18T14:47:00;33.90;;;13.80;;
21140;SDS011;10728;53.284;10.314;2022-12-18T14:49:46;42.10;;;15.37;;
21140;SDS011;10728;53.284;10.314;2022-12-18T14:52:21;33.77;;;15.70;;
21140;SDS011;10728;53.284;10.314;2022-12-18T14:55:00;42.40;;;19.17;;
21140;SDS011;10728;53.284;10.314;2022-12-18T14:57:29;38.17;;;16.63;;
21140;SDS011;10728;53.284;10.314;2022-12-18T15:00:16;34.67;;;15.13;;
21140;SDS011;10728;53.284;10.314;2022-12-18T15:03:09;37.07;;;15.27;;
21140;SDS011;10728;53.284;10.314;2022-12-18T15:05:35;37.00;;;15.63;;
21140;SDS011;10728;53.284;10.314;2022-12-18T15:08:00;39.57;;;15.90;;
21140;SDS011;10728;53.284;10.314;2022-12-18T15:10:29;31.40;;;14.37;;
21140;SDS011;10728;53.284;10.314;2022-12-18T15:24:03;31.00;;;13.83;;
21140;SDS011;10728;53.284;10.314;2022-12-18T15:26:36;34.40;;;14.07;;
21140;SDS011;10728;53.284;10.314;2022-12-18T15:29:23;32.40;;;13.80;;
21140;SDS011;10728;53.284;10.314;2022-12-18T15:31:59;32.07;;;14.17;;
21140;SDS011;10728;53.284;10.314;2022-12-18T15:34:26;32.90;;;13.87;;
21140;SDS011;10728;53.284;10.314;2022-12-18T15:36:55;30.17;;;13.50;;
21140;SDS011;10728;53.284;10.314;2022-12-18T15:42:14;28.10;;;12.60;;
21140;SDS011;10728;53.284;10.314;2022-12-18T15:47:50;37.57;;;14.10;;
21140;SDS011;10728;53.284;10.314;2022-12-18T15:50:16;32.93;;;14.13;;
21140;SDS011;10728;53.284;10.314;2022-12-18T15:52:43;33.10;;;13.20;;
21140;SDS011;10728;53.284;10.314;2022-12-18T15:55:52;30.13;;;13.23;;
21140;SDS011;10728;53.284;10.314;2022-12-18T15:58:36;32.90;;;13.47;;
21140;SDS011;10728;53.284;10.314;2022-12-18T16:01:01;37.10;;;14.23;;
21140;SDS011;10728;53.284;10.314;2022-12-18T16:03:27;34.03;;;13.07;;
21140;SDS011;10728;53.284;10.314;2022-12-18T16:05:53;31.50;;;13.53;;
21140;SDS011;10728;53.284;10.314;2022-12-18T16:08:18;28.00;;;12.63;;
21140;SDS011;10728;53.284;10.314;2022-12-18T16:10:44;31.00;;;13.80;;
21140;SDS011;10728;53.284;10.314;2022-12-18T16:13:12;34.77;;;13.47;;
21140;SDS011;10728;53.284;10.314;2022-12-18T16:15:41;28.23;;;14.23;;
21140;SDS011;10728;53.284;10.314;2022-12-18T16:18:06;31.60;;;14.40;;
21140;SDS011;10728;53.284;10.314;2022-12-18T16:20:32;28.33;;;13.37;;
21140;SDS011;10728;53.284;10.314;2022-12-18T16:22:57;27.33;;;12.30;;
21140;SDS011;10728;53.284;10.314;2022-12-18T16:25:24;36.07;;;14.47;;
21140;SDS011;10728;53.284;10.314;2022-12-18T16:27:51;29.27;;;13.50;;
21140;SDS011;10728;53.284;10.314;2022-12-18T16:30:20;32.17;;;12.83;;
21140;SDS011;10728;53.284;10.314;2022-12-18T16:32:52;29.20;;;14.00;;
21140;SDS011;10728;53.284;10.314;2022-12-18T16:35:18;29.90;;;13.40;;
21140;SDS011;10728;53.284;10.314;2022-12-18T16:37:43;31.87;;;13.83;;
21140;SDS011;10728;53.284;10.314;2022-12-18T16:40:10;23.33;;;13.00;;
21140;SDS011;10728;53.284;10.314;2022-12-18T16:42:38;30.13;;;12.90;;
21140;SDS011;10728;53.284;10.314;2022-12-18T16:45:05;28.17;;;12.90;;
21140;SDS011;10728;53.284;10.314;2022-12-18T16:47:32;28.93;;;12.10;;
21140;SDS011;10728;53.284;10.314;2022-12-18T16:49:57;28.00;;;12.23;;
21140;SDS011;10728;53.284;10.314;2022-12-18T16:52:23;31.60;;;12.37;;
21140;SDS011;10728;53.284;10.314;2022-12-18T16:54:48;25.87;;;12.77;;
21140;SDS011;10728;53.284;10.314;2022-12-18T16:57:15;26.93;;;12.57;;
21140;SDS011;10728;53.284;10.314;2022-12-18T16:59:41;24.40;;;12.53;;
21140;SDS011;10728;53.284;10.314;2022-12-18T17:02:26;26.67;;;11.90;;
21140;SDS011;10728;53.284;10.314;2022-12-18T17:04:52;26.53;;;12.47;;
21140;SDS011;10728;53.284;10.314;2022-12-18T17:07:19;28.07;;;12.20;;
21140;SDS011;10728;53.284;10.314;2022-12-18T17:09:44;26.37;;;11.90;;
21140;SDS011;10728;53.284;10.314;2022-12-18T17:12:09;22.30;;;11.37;;
21140;SDS011;10728;53.284;10.314;2022-12-18T17:14:35;26.40;;;11.97;;
21140;SDS011;10728;53.284;10.314;2022-12-18T17:17:01;24.80;;;11.60;;
21140;SDS011;10728;53.284;10.314;2022-12-18T17:19:27;25.60;;;11.47;;
21140;SDS011;10728;53.284;10.314;2022-12-18T17:21:52;24.67;;;10.83;;
21140;SDS011;10728;53.284;10.314;2022-12-18T17:24:18;21.30;;;10.70;;
21140;SDS011;10728;53.284;10.314;2022-12-18T17:26:45;23.57;;;11.47;;
21140;SDS011;10728;53.284;10.314;2022-12-18T17:29:15;24.67;;;11.03;;
21140;SDS011;10728;53.284;10.314;2022-12-18T17:31:41;24.20;;;11.67;;
21140;SDS011;10728;53.284;10.314;2022-12-18T17:34:08;25.63;;;11.13;;
21140;SDS011;10728;53.284;10.314;2022-12-18T17:36:34;27.20;;;11.63;;
21140;SDS011;10728;53.284;10.314;2022-12-18T17:39:00;20.80;;;10.37;;
21140;SDS011;10728;53.284;10.314;2022-12-18T17:41:26;21.70;;;10.57;;
21140;SDS011;10728;53.284;10.314;2022-12-18T17:43:53;18.70;;;10.33;;
21140;SDS011;10728;53.284;10.314;2022-12-18T17:46:20;20.00;;;10.27;;
21140;SDS011;10728;53.284;10.314;2022-12-18T17:48:45;21.63;;;10.20;;
21140;SDS011;10728;53.284;10.314;2022-12-18T17:51:11;19.50;;;10.07;;
21140;SDS011;10728;53.284;10.314;2022-12-18T17:53:38;20.27;;;10.00;;
21140;SDS011;10728;53.284;10.314;2022-12-18T17:56:04;22.40;;;9.90;;
21140;SDS011;10728;53.284;10.314;2022-12-18T17:58:30;21.73;;;10.70;;
21140;SDS011;10728;53.284;10.314;2022-12-18T18:00:57;20.33;;;10.53;;
21140;SDS011;10728;53.284;10.314;2022-12-18T18:03:22;20.47;;;9.30;;
21140;SDS011;10728;53.284;10.314;2022-12-18T18:05:48;21.43;;;9.00;;
21140;SDS011;10728;53.284;10.314;2022-12-18T18:08:13;21.47;;;9.53;;
21140;SDS011;10728;53.284;10.314;2022-12-18T18:10:39;22.57;;;9.67;;
21140;SDS011;10728;53.284;10.314;2022-12-18T18:13:15;17.63;;;8.97;;
21140;SDS011;10728;53.284;10.314;2022-12-18T18:16:04;20.77;;;9.37;;
21140;SDS011;10728;53.284;10.314;2022-12-18T18:18:30;17.47;;;8.67;;
21140;SDS011;10728;53.284;10.314;2022-12-18T18:20:56;22.00;;;9.77;;
21140;SDS011;10728;53.284;10.314;2022-12-18T18:23:24;20.60;;;9.97;;
21140;SDS011;10728;53.284;10.314;2022-12-18T18:25:53;17.80;;;8.77;;
21140;SDS011;10728;53.284;10.314;2022-12-18T18:28:18;21.07;;;10.10;;
21140;SDS011;10728;53.284;10.314;2022-12-18T18:30:44;18.80;;;8.50;;
21140;SDS011;10728;53.284;10.314;2022-12-18T18:33:09;18.37;;;8.40;;
21140;SDS011;10728;53.284;10.314;2022-12-18T18:35:41;22.60;;;9.33;;
21140;SDS011;10728;53.284;10.314;2022-12-18T18:38:07;21.20;;;9.63;;
21140;SDS011;10728;53.284;10.314;2022-12-18T18:40:32;24.23;;;10.77;;
21140;SDS011;10728;53.284;10.314;2022-12-18T18:42:58;19.57;;;9.43;;
21140;SDS011;10728;53.284;10.314;2022-12-18T18:45:23;19.43;;;9.10;;
21140;SDS011;10728;53.284;10.314;2022-12-18T18:47:49;18.13;;;8.67;;
21140;SDS011;10728;53.284;10.314;2022-12-18T18:50:14;20.83;;;9.10;;
21140;SDS011;10728;53.284;10.314;2022-12-18T18:52:40;19.23;;;8.90;;
21140;SDS011;10728;53.284;10.314;2022-12-18T18:55:05;20.70;;;10.03;;
21140;SDS011;10728;53.284;10.314;2022-12-18T18:57:32;17.77;;;9.27;;
21140;SDS011;10728;53.284;10.314;2022-12-18T18:59:58;17.90;;;8.97;;
21140;SDS011;10728;53.284;10.314;2022-12-18T19:02:23;18.93;;;9.90;;
21140;SDS011;10728;53.284;10.314;2022-12-18T19:04:50;20.77;;;8.70;;
21140;SDS011;10728;53.284;10.314;2022-12-18T19:07:16;19.23;;;10.07;;
21140;SDS011;10728;53.284;10.314;2022-12-18T19:09:41;25.23;;;9.57;;
21140;SDS011;10728;53.284;10.314;2022-12-18T19:12:09;20.23;;;9.53;;
21140;SDS011;10728;53.284;10.314;2022-12-18T19:14:53;23.63;;;9.43;;
21140;SDS011;10728;53.284;10.314;2022-12-18T19:17:19;22.20;;;8.70;;
21140;SDS011;10728;53.284;10.314;2022-12-18T19:19:45;20.40;;;8.97;;
21140;SDS011;10728;53.284;10.314;2022-12-18T19:22:10;21.57;;;9.33;;
21140;SDS011;10728;53.284;10.314;2022-12-18T19:24:36;25.97;;;10.23;;
21140;SDS011;10728;53.284;10.314;2022-12-18T19:27:01;22.07;;;10.43;;
21140;SDS011;10728;53.284;10.314;2022-12-18T19:29:27;19.97;;;8.87;;
21140;SDS011;10728;53.284;10.314;2022-12-18T19:31:53;23.00;;;10.70;;
21140;SDS011;10728;53.284;10.314;2022-12-18T19:34:18;21.50;;;10.47;;
21140;SDS011;10728;53.284;10.314;2022-12-18T19:36:44;24.37;;;11.00;;
21140;SDS011;10728;53.284;10.314;2022-12-18T19:39:11;23.33;;;10.60;;
21140;SDS011;10728;53.284;10.314;2022-12-18T19:41:39;20.77;;;10.37;;
21140;SDS011;10728;53.284;10.314;2022-12-18T19:44:05;23.23;;;10.43;;
21140;SDS011;10728;53.284;10.314;2022-12-18T19:46:31;23.83;;;10.53;;
21140;SDS011;10728;53.284;10.314;2022-12-18T19:49:00;22.93;;;11.03;;
21140;SDS011;10728;53.284;10.314;2022-12-18T19:51:26;21.43;;;10.63;;
21140;SDS011;10728;53.284;10.314;2022-12-18T19:53:53;24.03;;;10.33;;
21140;SDS011;10728;53.284;10.314;2022-12-18T19:56:20;22.10;;;11.00;;
21140;SDS011;10728;53.284;10.314;2022-12-18T19:58:46;22.23;;;10.50;;
21140;SDS011;10728;53.284;10.314;2022-12-18T20:01:14;22.20;;;10.53;;
21140;SDS011;10728;53.284;10.314;2022-12-18T20:03:41;27.93;;;11.80;;
21140;SDS011;10728;53.284;10.314;2022-12-18T20:08:39;23.17;;;10.73;;
21140;SDS011;10728;53.284;10.314;2022-12-18T20:11:05;20.50;;;10.43;;
21140;SDS011;10728;53.284;10.314;2022-12-18T20:13:31;24.23;;;11.37;;
21140;SDS011;10728;53.284;10.314;2022-12-18T20:15:56;23.90;;;11.53;;
21140;SDS011;10728;53.284;10.314;2022-12-18T20:18:23;23.87;;;11.60;;
21140;SDS011;10728;53.284;10.314;2022-12-18T20:20:48;21.37;;;11.43;;
21140;SDS011;10728;53.284;10.314;2022-12-18T20:23:13;25.60;;;12.60;;
21140;SDS011;10728;53.284;10.314;2022-12-18T20:25:39;26.47;;;11.63;;
21140;SDS011;10728;53.284;10.314;2022-12-18T20:28:04;26.10;;;12.30;;
21140;SDS011;10728;53.284;10.314;2022-12-18T20:30:30;27.43;;;12.53;;
21140;SDS011;10728;53.284;10.314;2022-12-18T20:32:55;27.17;;;11.83;;
21140;SDS011;10728;53.284;10.314;2022-12-18T20:35:21;27.60;;;11.83;;
21140;SDS011;10728;53.284;10.314;2022-12-18T20:37:46;25.30;;;12.33;;
21140;SDS011;10728;53.284;10.314;2022-12-18T20:40:12;27.13;;;12.97;;
21140;SDS011;10728;53.284;10.314;2022-12-18T20:42:37;29.40;;;11.73;;
21140;SDS011;10728;53.284;10.314;2022-12-18T20:45:03;24.40;;;11.97;;
21140;SDS011;10728;53.284;10.314;2022-12-18T20:47:29;29.43;;;12.63;;
21140;SDS011;10728;53.284;10.314;2022-12-18T20:49:54;27.80;;;12.90;;
21140;SDS011;10728;53.284;10.314;2022-12-18T20:52:21;24.97;;;12.20;;
21140;SDS011;10728;53.284;10.314;2022-12-18T20:54:46;26.77;;;12.57;;
21140;SDS011;10728;53.284;10.314;2022-12-18T20:57:12;27.60;;;12.90;;
21140;SDS011;10728;53.284;10.314;2022-12-18T20:59:37;25.77;;;13.30;;
21140;SDS011;10728;53.284;10.314;2022-12-18T21:02:03;27.93;;;12.67;;
21140;SDS011;10728;53.284;10.314;2022-12-18T21:04:28;27.10;;;12.23;;
21140;SDS011;10728;53.284;10.314;2022-12-18T21:06:54;26.63;;;11.83;;
21140;SDS011;10728;53.284;10.314;2022-12-18T21:09:19;25.50;;;12.07;;
21140;SDS011;10728;53.284;10.314;2022-12-18T21:11:45;29.83;;;12.37;;
21140;SDS011;10728;53.284;10.314;2022-12-18T21:14:29;29.97;;;13.13;;
21140;SDS011;10728;53.284;10.314;2022-12-18T21:16:55;27.60;;;13.30;;
21140;SDS011;10728;53.284;10.314;2022-12-18T21:19:22;27.83;;;12.73;;
21140;SDS011;10728;53.284;10.314;2022-12-18T21:21:50;28.07;;;13.00;;
21140;SDS011;10728;53.284;10.314;2022-12-18T21:24:16;31.83;;;14.63;;
21140;SDS011;10728;53.284;10.314;2022-12-18T21:26:42;25.87;;;12.10;;
21140;SDS011;10728;53.284;10.314;2022-12-18T21:29:09;26.57;;;13.77;;
21140;SDS011;10728;53.284;10.314;2022-12-18T21:31:37;27.23;;;12.83;;
21140;SDS011;10728;53.284;10.314;2022-12-18T21:34:03;28.13;;;12.83;;
21140;SDS011;10728;53.284;10.314;2022-12-18T21:36:29;26.83;;;13.00;;
21140;SDS011;10728;53.284;10.314;2022-12-18T21:38:56;38.00;;;19.13;;
21140;SDS011;10728;53.284;10.314;2022-12-18T21:41:21;29.63;;;15.13;;
21140;SDS011;10728;53.284;10.314;2022-12-18T21:44:06;23.30;;;11.33;;
21140;SDS011;10728;53.284;10.314;2022-12-18T21:48:58;26.83;;;13.43;;
21140;SDS011;10728;53.284;10.314;2022-12-18T21:51:24;32.47;;;13.13;;
21140;SDS011;10728;53.284;10.314;2022-12-18T21:53:50;27.83;;;12.93;;
21140;SDS011;10728;53.284;10.314;2022-12-18T21:56:15;28.30;;;12.97;;
21140;SDS011;10728;53.284;10.314;2022-12-18T21:58:41;26.10;;;12.20;;
21140;SDS011;10728;53.284;10.314;2022-12-18T22:01:07;30.40;;;13.97;;
21140;SDS011;10728;53.284;10.314;2022-12-18T22:03:33;28.77;;;12.80;;
21140;SDS011;10728;53.284;10.314;2022-12-18T22:06:12;28.27;;;12.80;;
21140;SDS011;10728;53.284;10.314;2022-12-18T22:08:38;29.17;;;13.10;;
21140;SDS011;10728;53.284;10.314;2022-12-18T22:11:05;26.50;;;12.43;;
21140;SDS011;10728;53.284;10.314;2022-12-18T22:13:51;30.67;;;13.43;;
21140;SDS011;10728;53.284;10.314;2022-12-18T22:16:17;29.97;;;13.57;;
21140;SDS011;10728;53.284;10.314;2022-12-18T22:18:43;27.07;;;13.37;;
21140;SDS011;10728;53.284;10.314;2022-12-18T22:24:38;28.03;;;12.80;;
21140;SDS011;10728;53.284;10.314;2022-12-18T22:27:04;31.13;;;13.57;;
21140;SDS011;10728;53.284;10.314;2022-12-18T22:29:30;29.40;;;13.63;;
21140;SDS011;10728;53.284;10.314;2022-12-18T22:32:15;28.00;;;13.13;;
21140;SDS011;10728;53.284;10.314;2022-12-18T22:34:47;28.93;;;14.03;;
21140;SDS011;10728;53.284;10.314;2022-12-18T22:37:27;23.30;;;12.67;;
21140;SDS011;10728;53.284;10.314;2022-12-18T22:40:00;27.03;;;13.27;;
21140;SDS011;10728;53.284;10.314;2022-12-18T22:42:31;30.30;;;13.13;;
21140;SDS011;10728;53.284;10.314;2022-12-18T22:45:10;31.30;;;13.67;;
21140;SDS011;10728;53.284;10.314;2022-12-18T22:47:37;29.33;;;13.47;;
21140;SDS011;10728;53.284;10.314;2022-12-18T22:53:07;28.03;;;13.73;;
21140;SDS011;10728;53.284;10.314;2022-12-18T22:55:38;28.93;;;13.67;;
21140;SDS011;10728;53.284;10.314;2022-12-18T22:58:24;29.37;;;13.27;;
21140;SDS011;10728;53.284;10.314;2022-12-18T23:00:50;26.37;;;13.40;;
21140;SDS011;10728;53.284;10.314;2022-12-18T23:03:16;27.93;;;12.83;;